.
WxDataArchive / Data Records for 2011-02-23
2011-02-22 February 2011 2011-02-24

Data Records for Wednesday, 23 February 2011

Time	Temp	Chill	HIndex	Humid	Dewpt	 Wind 	HiWind	WindDir	Rain 	Barom 
-----	----	-----	------	-----	-----	------	------	-------	-----	----- 
00:00	11.4	11.4	11.4	85	7.8	0	0	---	0.00	30.350 
00:05	11.2	11.2	11.2	85	7.6	0	0	---	0.00	30.350 
00:10	11.1	11.1	11.1	85	7.5	0	0	---	0.00	30.350 
00:15	10.9	10.9	10.9	85	7.3	0	0	---	0.00	30.348 
00:20	10.7	10.7	10.7	85	7.1	0	0	---	0.00	30.348 
00:25	10.7	10.7	10.7	85	7.1	0	0	---	0.00	30.348 
00:30	10.5	10.5	10.5	85	6.9	0	0	---	0.00	30.351 
00:35	10.4	10.4	10.4	85	6.8	0	0	---	0.00	30.351 
00:40	10.2	10.2	10.2	85	6.6	0	0	---	0.00	30.351 
00:45	10.0	10.0	10.0	85	6.4	0	0	---	0.00	30.349 
00:50	9.9	9.9	9.9	85	6.3	0	0	---	0.00	30.349 
00:55	9.7	9.7	9.7	85	6.1	0	0	---	0.00	30.349 
01:00	9.7	9.7	9.7	85	6.1	0	0	---	0.00	30.348 
01:05	9.5	9.5	9.5	85	5.9	0	0	---	0.00	30.348 
01:10	9.5	9.5	9.5	85	5.9	0	0	---	0.00	30.348 
01:15	9.5	9.5	9.5	85	5.9	0	0	---	0.00	30.353 
01:20	9.5	9.5	9.5	85	5.9	0	0	---	0.00	30.353 
01:25	9.3	9.3	9.3	85	5.7	0	0	---	0.00	30.353 
01:30	9.2	9.2	9.2	85	5.6	0	0	---	0.00	30.353 
01:35	9.0	9.0	9.0	85	5.4	0	0	---	0.00	30.353 
01:40	8.8	8.8	8.8	85	5.2	0	0	---	0.00	30.353 
01:45	8.6	8.6	8.6	85	5.0	0	0	---	0.00	30.353 
01:50	8.6	8.6	8.6	85	5.0	0	0	---	0.00	30.353 
01:55	8.6	8.6	8.6	85	5.0	0	0	---	0.00	30.353 
02:00	8.4	8.4	8.4	85	4.8	0	0	---	0.00	30.356 
02:05	8.4	8.4	8.4	85	4.8	0	0	---	0.00	30.356 
02:10	8.3	8.3	8.3	85	4.7	0	0	---	0.00	30.356 
02:15	8.3	8.3	8.3	85	4.7	0	0	---	0.00	30.358 
02:20	8.4	8.4	8.4	85	4.8	0	0	---	0.00	30.358 
02:25	8.6	8.6	8.6	85	5.0	0	0	---	0.00	30.358 
02:30	8.8	8.8	8.8	85	5.2	0	0	---	0.00	30.357 
02:35	9.2	9.2	9.2	85	5.6	0	0	---	0.00	30.357 
02:40	9.3	9.3	9.3	86	6.0	0	0	---	0.00	30.357 
02:45	9.7	9.7	9.7	86	6.4	0	0	---	0.00	30.359 
02:50	10.0	10.0	10.0	86	6.7	0	0	---	0.00	30.359 
02:55	10.4	10.4	10.4	86	7.1	0	0	---	0.00	30.359 
03:00	10.7	10.7	10.7	87	7.6	0	0	---	0.00	30.357 
03:05	11.1	11.1	11.1	87	8.0	0	0	---	0.00	30.357 
03:10	11.4	11.4	11.4	87	8.3	0	0	---	0.00	30.357 
03:15	11.7	11.7	11.7	87	8.6	0	0	---	0.00	30.353 
03:20	11.9	11.9	11.9	87	8.8	0	0	---	0.00	30.353 
03:25	12.3	12.3	12.3	87	9.2	0	0	---	0.00	30.353 
03:30	12.4	12.4	12.4	87	9.3	0	0	---	0.00	30.350 
03:35	12.6	12.6	12.6	87	9.5	0	0	---	0.00	30.350 
03:40	12.8	12.8	12.8	88	9.9	0	0	---	0.00	30.350 
03:45	13.1	13.1	13.1	88	10.2	0	0	---	0.00	30.341 
03:50	13.3	13.3	13.3	88	10.4	0	0	---	0.00	30.341 
03:55	13.5	13.5	13.5	88	10.6	0	1	90	0.00	30.341 
04:00	13.6	13.6	13.6	88	10.7	0	0	---	0.00	30.337 
04:05	14.0	14.0	14.0	88	11.1	0	0	---	0.00	30.337 
04:10	14.1	14.1	14.1	88	11.2	0	0	---	0.00	30.337 
04:15	14.3	14.3	14.3	88	11.4	0	0	---	0.00	30.350 
04:20	14.4	14.4	14.4	88	11.5	0	0	---	0.00	30.350 
04:25	14.6	14.6	14.6	88	11.7	0	0	---	0.00	30.350 
04:30	14.8	14.8	14.8	88	11.9	0	0	---	0.00	30.355 
04:35	14.9	14.9	14.9	88	12.0	0	0	---	0.00	30.355 
04:40	15.1	15.1	15.1	88	12.2	0	0	---	0.00	30.355 
04:45	15.2	15.2	15.2	88	12.3	0	0	---	0.00	30.363 
04:50	15.4	15.4	15.4	89	12.8	0	1	90	0.00	30.363 
04:55	15.6	15.6	15.6	89	12.9	0	1	90	0.00	30.363 
05:00	15.9	15.9	15.9	89	13.2	0	1	90	0.00	30.360 
05:05	16.1	16.1	16.1	89	13.4	0	1	90	0.00	30.360 
05:10	16.2	16.2	16.2	88	13.3	0	1	90	0.00	30.360 
05:15	16.2	16.2	16.2	88	13.3	0	1	90	0.00	30.360 
05:20	16.4	16.4	16.4	89	13.7	0	1	90	0.00	30.360 
05:25	16.5	16.5	16.5	88	13.6	0	1	90	0.00	30.360 
05:30	16.7	16.7	16.7	88	13.8	0	1	90	0.00	30.366 
05:35	16.7	16.7	16.7	88	13.8	0	1	90	0.00	30.366 
05:40	16.7	16.7	16.7	88	13.8	0	1	90	0.00	30.366 
05:45	16.7	16.7	16.7	88	13.8	0	2	90	0.00	30.371 
05:50	16.7	16.7	16.7	88	13.8	0	1	90	0.00	30.371 
05:55	16.7	16.7	16.7	88	13.8	0	1	90	0.00	30.371 
06:00	16.9	16.9	16.9	88	14.0	0	1	90	0.00	30.362 
06:05	16.9	16.9	16.9	88	14.0	0	0	---	0.00	30.362 
06:10	16.9	16.9	16.9	88	14.0	0	0	---	0.00	30.362 
06:15	16.9	16.9	16.9	88	14.0	0	0	---	0.00	30.358 
06:20	16.9	16.9	16.9	88	14.0	0	2	90	0.00	30.358 
06:25	17.0	17.0	17.0	88	14.1	0	1	90	0.00	30.358 
06:30	17.0	17.0	17.0	88	14.1	0	1	90	0.00	30.351 
06:35	17.0	17.0	17.0	88	14.1	0	1	90	0.00	30.351 
06:40	17.0	17.0	17.0	88	14.1	0	2	90	0.00	30.351 
06:45	17.0	17.0	17.0	88	14.1	0	1	90	0.00	30.353 
06:50	17.0	17.0	17.0	89	14.3	0	1	90	0.00	30.353 
06:55	17.0	17.0	17.0	89	14.3	0	2	90	0.00	30.353 
07:00	17.2	17.2	17.2	89	14.5	0	1	90	0.00	30.358 
07:05	17.2	17.2	17.2	89	14.5	0	1	90	0.00	30.358 
07:10	17.2	17.2	17.2	89	14.5	0	3	90	0.00	30.358 
07:15	17.2	17.2	17.2	89	14.5	1	3	90	0.00	30.356 
07:20	17.2	17.2	17.2	89	14.5	0	1	90	0.00	30.356 
07:25	17.0	17.0	17.0	89	14.3	0	1	90	0.00	30.356 
07:30	17.2	17.2	17.2	89	14.5	0	2	90	0.00	30.364 
07:35	17.0	17.0	17.0	89	14.3	1	3	90	0.00	30.364 
07:40	17.0	17.0	17.0	89	14.3	0	2	90	0.00	30.364 
07:45	17.0	17.0	17.0	89	14.3	0	1	90	0.00	30.366 
07:50	17.0	17.0	17.0	89	14.3	0	1	90	0.00	30.366 
07:55	17.0	17.0	17.0	89	14.3	0	2	90	0.00	30.366 
08:00	17.0	17.0	17.0	89	14.3	0	2	90	0.00	30.377 
08:05	17.0	17.0	17.0	89	14.3	0	1	90	0.00	30.377 
08:10	17.0	17.0	17.0	89	14.3	0	1	90	0.00	30.377 
08:15	17.0	17.0	17.0	89	14.3	0	1	90	0.00	30.389 
08:20	17.2	17.2	17.2	89	14.5	0	1	90	0.00	30.389 
08:25	17.2	17.2	17.2	89	14.5	0	2	90	0.00	30.389 
08:30	17.3	17.3	17.3	89	14.6	0	2	90	0.00	30.398 
08:35	17.3	17.3	17.3	89	14.6	0	2	90	0.00	30.398 
08:40	17.5	17.5	17.5	89	14.8	1	2	90	0.00	30.398 
08:45	17.5	17.5	17.5	89	14.8	1	2	90	0.00	30.384 
08:50	17.5	17.5	17.5	89	14.8	1	2	90	0.00	30.384 
08:55	17.5	17.5	17.5	89	14.8	0	2	90	0.00	30.384 
09:00	17.7	17.7	17.7	89	15.0	1	3	90	0.00	30.379 
09:05	17.7	17.7	17.7	89	15.0	2	4	90	0.00	30.379 
09:10	17.7	17.7	17.7	89	15.0	1	2	112	0.00	30.379 
09:15	17.7	17.7	17.7	88	14.8	2	3	90	0.00	30.374 
09:20	17.5	17.5	17.5	88	14.6	1	3	90	0.00	30.374 
09:25	17.5	17.5	17.5	88	14.6	1	3	112	0.00	30.374 
09:30	17.7	17.7	17.7	89	15.0	1	3	90	0.00	30.369 
09:35	17.7	17.7	17.7	88	14.8	1	5	112	0.00	30.369 
09:40	17.7	17.7	17.7	88	14.8	2	5	112	0.00	30.369 
09:45	17.8	17.8	17.8	88	14.9	2	5	112	0.00	30.369 
09:50	17.8	17.8	17.8	88	14.9	2	5	112	0.00	30.369 
09:55	18.0	18.0	18.0	88	15.1	2	5	90	0.00	30.369 
10:00	18.1	18.1	18.1	88	15.2	2	6	90	0.00	30.367 
10:05	18.4	18.4	18.4	89	15.7	1	3	90	0.00	30.367 
10:10	18.8	18.8	18.8	88	15.8	1	6	112	0.00	30.367 
10:15	19.1	19.1	19.1	88	16.1	1	3	112	0.00	30.372 
10:20	19.4	19.4	19.4	88	16.4	1	3	112	0.00	30.372 
10:25	19.7	19.7	19.7	88	16.7	1	3	135	0.00	30.372 
10:30	19.9	19.9	19.9	88	16.9	1	4	90	0.00	30.367 
10:35	20.0	20.0	20.0	88	17.0	1	4	90	0.00	30.367 
10:40	20.0	20.0	20.0	87	16.8	2	4	90	0.00	30.367 
10:45	20.2	20.2	20.2	87	17.0	1	3	112	0.00	30.371 
10:50	20.5	20.5	20.5	87	17.3	1	2	45	0.00	30.371 
10:55	20.6	20.6	20.6	87	17.4	1	3	112	0.00	30.371 
11:00	21.0	21.0	21.0	87	17.8	0	2	90	0.00	30.365 
11:05	21.0	21.0	21.0	86	17.5	1	5	90	0.00	30.365 
11:10	21.0	21.0	21.0	86	17.5	2	6	90	0.00	30.365 
11:15	21.1	21.1	21.1	86	17.6	1	4	90	0.00	30.365 
11:20	21.3	21.3	21.3	86	17.8	2	4	90	0.00	30.365 
11:25	21.4	21.4	21.4	86	17.9	1	4	112	0.00	30.365 
11:30	21.6	21.6	21.6	86	18.1	0	2	112	0.00	30.364 
11:35	21.8	21.8	21.8	85	18.0	1	2	112	0.00	30.364 
11:40	21.9	21.9	21.9	85	18.1	0	2	112	0.00	30.364 
11:45	22.1	22.1	22.1	85	18.3	1	3	112	0.00	30.358 
11:50	22.2	22.2	22.2	85	18.4	2	6	112	0.00	30.358 
11:55	22.2	22.2	22.2	85	18.4	1	4	68	0.00	30.358 
12:00	22.4	22.4	22.4	85	18.6	1	3	90	0.00	30.351 
12:05	22.5	22.5	22.5	85	18.7	1	3	90	0.00	30.351 
12:10	22.5	22.5	22.5	85	18.7	2	4	112	0.00	30.351 
12:15	22.5	22.5	22.5	84	18.4	1	4	112	0.00	30.351 
12:20	22.7	22.7	22.7	84	18.6	1	3	135	0.00	30.351 
12:25	22.7	22.7	22.7	84	18.6	1	4	90	0.00	30.351 
12:30	22.9	22.9	22.9	85	19.1	1	3	90	0.00	30.348 
12:35	23.0	23.0	23.0	84	18.9	1	2	112	0.00	30.348 
12:40	23.0	23.0	23.0	84	18.9	1	3	112	0.00	30.348 
12:45	23.0	23.0	23.0	84	18.9	1	5	90	0.00	30.349 
12:50	23.0	23.0	23.0	84	18.9	1	3	135	0.00	30.349 
12:55	22.9	22.9	22.9	84	18.8	1	4	315	0.00	30.349 
13:00	22.9	22.9	22.9	84	18.8	1	5	112	0.00	30.340 
13:05	23.0	23.0	23.0	84	18.9	1	4	90	0.00	30.340 
13:10	23.0	23.0	23.0	84	18.9	1	3	112	0.00	30.340 
13:15	23.0	23.0	23.0	83	18.6	1	4	90	0.00	30.338 
13:20	22.7	22.7	22.7	84	18.6	1	4	112	0.00	30.338 
13:25	22.9	22.9	22.9	84	18.8	1	4	112	0.00	30.338 
13:30	22.9	22.9	22.9	84	18.8	2	4	112	0.00	30.325 
13:35	22.9	22.9	22.9	84	18.8	1	4	90	0.00	30.325 
13:40	22.9	22.9	22.9	84	18.8	2	5	90	0.00	30.325 
13:45	22.7	22.7	22.7	84	18.6	2	5	112	0.00	30.319 
13:50	22.7	22.7	22.7	84	18.6	2	5	135	0.00	30.319 
13:55	22.5	22.5	22.5	84	18.4	1	4	90	0.00	30.319 
14:00	22.7	22.7	22.7	84	18.6	0	1	112	0.00	30.324 
14:05	22.7	22.7	22.7	84	18.6	0	2	112	0.00	30.324 
14:10	22.9	22.9	22.9	84	18.8	1	4	112	0.00	30.324 
14:15	23.2	23.2	23.2	84	19.1	0	2	248	0.00	30.315 
14:20	23.5	23.5	23.5	83	19.1	1	3	248	0.00	30.315 
14:25	23.0	23.0	23.0	83	18.6	0	2	248	0.00	30.315 
14:30	23.3	23.3	23.3	83	18.9	1	5	248	0.00	30.304 
14:35	23.3	23.3	23.3	83	18.9	1	4	90	0.00	30.304 
14:40	23.3	23.3	23.3	84	19.2	1	3	90	0.00	30.304 
14:45	23.2	23.2	23.2	84	19.1	1	3	90	0.00	30.301 
14:50	23.0	23.0	23.0	84	18.9	1	4	90	0.00	30.301 
14:55	23.2	23.2	23.2	84	19.1	1	4	90	0.00	30.301 
15:00	23.2	23.2	23.2	84	19.1	2	4	90	0.00	30.289 
15:05	23.2	23.2	23.2	84	19.1	1	5	90	0.00	30.289 
15:10	23.3	23.3	23.3	84	19.2	1	3	112	0.00	30.289 
15:15	23.2	23.2	23.2	85	19.4	2	6	135	0.00	30.287 
15:20	23.2	23.2	23.2	85	19.4	1	3	90	0.00	30.287 
15:25	23.5	23.5	23.5	85	19.7	1	3	112	0.00	30.287 
15:30	23.5	23.5	23.5	84	19.4	1	4	90	0.00	30.274 
15:35	23.6	23.6	23.6	85	19.8	0	2	90	0.00	30.274 
15:40	23.6	23.6	23.6	85	19.8	1	2	90	0.00	30.274 
15:45	23.8	23.8	23.8	85	20.0	1	4	90	0.00	30.271 
15:50	23.6	23.6	23.6	84	19.5	2	5	90	0.00	30.271 
15:55	23.5	23.5	23.5	85	19.7	2	4	90	0.00	30.271 
16:00	23.6	23.6	23.6	86	20.0	1	3	135	0.00	30.267 
16:05	23.8	23.8	23.8	86	20.2	1	2	135	0.00	30.267 
16:10	23.9	23.9	23.9	86	20.3	0	2	112	0.00	30.267 
16:15	23.8	23.8	23.8	85	20.0	2	4	90	0.00	30.257 
16:20	23.6	23.6	23.6	86	20.0	2	6	90	0.00	30.257 
16:25	23.8	23.8	23.8	86	20.2	1	3	45	0.00	30.257 
16:30	24.1	24.1	24.1	86	20.5	1	3	112	0.00	30.252 
16:35	24.1	24.1	24.1	86	20.5	1	4	112	0.00	30.252 
16:40	24.2	24.2	24.2	86	20.6	2	3	112	0.00	30.252 
16:45	24.1	24.1	24.1	86	20.5	2	5	112	0.00	30.252 
16:50	24.1	24.1	24.1	86	20.5	1	3	112	0.00	30.252 
16:55	24.1	24.1	24.1	86	20.5	2	5	112	0.00	30.252 
17:00	24.1	24.1	24.1	87	20.8	1	4	112	0.00	30.241 
17:05	24.2	24.2	24.2	87	20.9	1	5	112	0.00	30.241 
17:10	24.2	24.2	24.2	87	20.9	1	5	112	0.00	30.241 
17:15	24.2	24.2	24.2	87	20.9	2	4	112	0.00	30.241 
17:20	24.2	24.2	24.2	87	20.9	2	4	112	0.00	30.241 
17:25	24.4	24.4	24.4	88	21.4	2	5	112	0.00	30.241 
17:30	24.4	24.4	24.4	88	21.4	1	5	112	0.00	30.235 
17:35	24.4	24.4	24.4	88	21.4	1	3	68	0.00	30.235 
17:40	24.5	24.5	24.5	88	21.5	1	3	68	0.00	30.235 
17:45	24.5	24.5	24.5	88	21.5	1	4	45	0.00	30.225 
17:50	24.7	24.7	24.7	88	21.7	2	9	112	0.00	30.225 
17:55	24.7	24.7	24.7	88	21.7	3	5	112	0.00	30.225 
18:00	24.5	18.3	24.5	88	21.5	5	10	112	0.00	30.193 
18:05	24.4	19.3	24.4	88	21.4	4	9	90	0.00	30.193 
18:10	24.4	24.4	24.4	88	21.4	3	10	112	0.00	30.193 
18:15	24.4	24.4	24.4	88	21.4	2	8	112	0.00	30.201 
18:20	24.4	24.4	24.4	89	21.6	1	6	112	0.00	30.201 
18:25	24.4	24.4	24.4	89	21.6	2	5	112	0.00	30.201 
18:30	24.5	24.5	24.5	89	21.7	1	6	112	0.00	30.212 
18:35	24.5	24.5	24.5	89	21.7	2	5	90	0.00	30.212 
18:40	24.5	24.5	24.5	89	21.7	2	6	68	0.00	30.212 
18:45	24.5	24.5	24.5	89	21.7	2	4	90	0.00	30.215 
18:50	24.7	24.7	24.7	89	21.9	1	4	112	0.00	30.215 
18:55	24.7	24.7	24.7	89	21.9	1	3	112	0.00	30.215 
19:00	24.7	24.7	24.7	90	22.2	1	3	112	0.00	30.218 
19:05	24.8	24.8	24.8	90	22.3	2	5	112	0.00	30.218 
19:10	24.8	24.8	24.8	90	22.3	2	5	112	0.00	30.218 
19:15	25.0	25.0	25.0	90	22.5	2	7	112	0.00	30.202 
19:20	25.0	25.0	25.0	90	22.5	1	3	90	0.00	30.202 
19:25	25.0	25.0	25.0	90	22.5	1	6	90	0.00	30.202 
19:30	25.1	25.1	25.1	90	22.6	1	2	158	0.00	30.213 
19:35	25.1	25.1	25.1	90	22.6	1	3	90	0.00	30.213 
19:40	25.3	25.3	25.3	90	22.8	1	3	90	0.00	30.213 
19:45	25.3	25.3	25.3	90	22.8	1	3	90	0.00	30.219 
19:50	25.3	25.3	25.3	90	22.8	1	2	90	0.00	30.219 
19:55	25.3	25.3	25.3	90	22.8	0	2	90	0.00	30.219 
20:00	25.3	25.3	25.3	90	22.8	1	4	90	0.00	30.203 
20:05	25.3	25.3	25.3	90	22.8	1	3	90	0.00	30.203 
20:10	25.3	25.3	25.3	90	22.8	1	4	90	0.00	30.203 
20:15	25.3	25.3	25.3	90	22.8	1	3	112	0.00	30.186 
20:20	25.3	25.3	25.3	90	22.8	1	4	112	0.00	30.186 
20:25	25.1	25.1	25.1	89	22.3	2	4	112	0.00	30.186 
20:30	25.0	25.0	25.0	89	22.2	2	5	112	0.00	30.176 
20:35	25.0	25.0	25.0	90	22.5	1	3	112	0.00	30.176 
20:40	25.0	25.0	25.0	90	22.5	2	4	112	0.00	30.176 
20:45	25.1	25.1	25.1	90	22.6	2	6	112	0.00	30.170 
20:50	25.1	25.1	25.1	90	22.6	3	6	90	0.00	30.170 
20:55	25.3	25.3	25.3	90	22.8	3	6	112	0.00	30.170 
21:00	25.3	25.3	25.3	90	22.8	3	6	112	0.00	30.148 
21:05	25.3	25.3	25.3	90	22.8	2	6	90	0.00	30.148 
21:10	25.3	25.3	25.3	90	22.8	1	4	112	0.00	30.148 
21:15	25.3	25.3	25.3	90	22.8	1	3	112	0.00	30.172 
21:20	25.3	25.3	25.3	90	22.8	1	2	112	0.00	30.172 
21:25	25.4	25.4	25.4	90	22.9	0	2	112	0.00	30.172 
21:30	25.6	25.6	25.6	91	23.3	0	2	112	0.00	30.173 
21:35	25.7	25.7	25.7	91	23.4	1	3	112	0.00	30.173 
21:40	25.7	25.7	25.7	91	23.4	1	3	112	0.00	30.173 
21:45	25.8	25.8	25.8	90	23.3	1	3	112	0.00	30.172 
21:50	25.8	25.8	25.8	90	23.3	2	4	112	0.00	30.172 
21:55	26.0	26.0	26.0	90	23.5	2	4	90	0.00	30.172 
22:00	26.0	21.1	26.0	91	23.7	4	7	112	0.00	30.138 
22:05	26.0	26.0	26.0	90	23.5	3	6	112	0.00	30.138 
22:10	26.1	21.3	26.1	91	23.8	4	9	112	0.00	30.138 
22:15	26.3	21.5	26.3	91	24.0	4	10	112	0.00	30.119 
22:20	26.3	21.5	26.3	91	24.0	4	10	112	0.00	30.119 
22:25	26.4	26.4	26.4	91	24.1	3	6	112	0.00	30.119 
22:30	26.4	21.6	26.4	91	24.1	4	7	112	0.00	30.104 
22:35	26.6	26.6	26.6	91	24.3	3	8	112	0.00	30.104 
22:40	26.6	26.6	26.6	91	24.3	2	5	90	0.00	30.104 
22:45	26.7	26.7	26.7	91	24.4	2	5	90	0.00	30.090 
22:50	26.9	26.9	26.9	92	24.9	2	7	112	0.00	30.090 
22:55	27.0	27.0	27.0	92	25.0	3	5	90	0.00	30.090 
23:00	27.3	27.3	27.3	92	25.3	2	5	90	0.00	30.099 
23:05	27.5	27.5	27.5	92	25.5	2	7	112	0.00	30.099 
23:10	27.5	27.5	27.5	91	25.2	1	6	90	0.00	30.099 
23:15	27.6	27.6	27.6	91	25.3	2	4	112	0.00	30.085 
23:20	27.8	27.8	27.8	91	25.5	2	5	90	0.00	30.085 
23:25	27.8	27.8	27.8	91	25.5	3	4	112	0.00	30.085 
23:30	27.9	27.9	27.9	91	25.6	1	6	112	0.00	30.087 
23:35	27.9	27.9	27.9	91	25.6	1	4	90	0.00	30.087 
23:40	28.1	28.1	28.1	91	25.8	1	4	90	0.00	30.087 
23:45	28.1	28.1	28.1	91	25.8	1	3	90	0.00	30.089 
23:50	28.2	28.2	28.2	91	25.9	1	4	90	0.00	30.089 
23:55	28.2	28.2	28.2	91	25.9	0	2	90	0.00	30.089 

CoCoRaHS
IN-AL-39
A2 Web Hosting
Creative Commons License
GoDaddy
search engine by freefind advanced

loaded 2018-11-21 01:27:45 • last modified 2010-11-18 10:43:29
Privacy PolicyDisclaimer
• wx.awcolley.com is powered by PmWiki v.2002016 •
• all content (unless otherwise noted) © 2018 A W Colley